Time;durP1;ratioP1;P1;durP2;ratioP2;P2;SDS_P1;SDS_P2;PMS_P1;PMS_P2;Temp;Humidity;BMP_temperature;BMP_pressure;BME280_temperature;BME280_humidity;BME280_pressure;Samples;Min_cycle;Max_cycle;Signal;HPM_P1;HPM_P2
2023/10/10 00:00:46;;;;;;;1.83;1.00;;;;;;;14.23;100.00;101683.63;2057471;28;20422;-66
2023/10/10 00:01:48;;;;;;;2.10;1.10;;;;;;;14.25;100.00;101683.97;2057559;28;20405;-66
2023/10/10 00:02:50;;;;;;;1.80;0.90;;;;;;;14.31;100.00;101696.19;2057485;28;20422;-66
2023/10/10 00:03:50;;;;;;;2.30;1.17;;;;;;;14.35;100.00;101688.53;2057452;28;20428;-66
2023/10/10 00:04:50;;;;;;;2.30;1.13;;;;;;;14.39;100.00;101680.88;2057446;28;20936;-66
2023/10/10 00:05:57;;;;;;;2.30;0.93;;;;;;;14.43;100.00;101687.94;2057486;28;20171;-66
2023/10/10 00:06:58;;;;;;;1.90;0.93;;;;;;;14.47;100.00;101687.84;2057477;28;20214;-66
2023/10/10 00:08:00;;;;;;;3.00;1.20;;;;;;;14.51;100.00;101680.19;2057557;28;20488;-66
2023/10/10 00:09:00;;;;;;;2.13;0.83;;;;;;;14.55;100.00;101680.91;2057488;28;20179;-66
2023/10/10 00:10:01;;;;;;;1.50;1.00;;;;;;;14.57;100.00;101681.25;2057431;28;20443;-66
2023/10/10 00:11:16;;;;;;;1.63;0.90;;;;;;;14.31;100.00;101632.06;2057397;28;20181;-66
2023/10/10 00:12:18;;;;;;;1.40;0.80;;;;;;;14.62;100.00;101664.78;2057473;28;20169;-66
2023/10/10 00:13:19;;;;;;;1.57;0.90;;;;;;;14.00;100.00;101578.59;2057400;28;20418;-66
2023/10/10 00:14:22;;;;;;;1.63;0.80;;;;;;;14.68;100.00;101667.81;2049480;28;20467;-66
2023/10/10 00:15:26;;;;;;;2.00;0.87;;;;;;;14.69;100.00;101664.59;2056652;28;20484;-66
2023/10/10 00:16:34;;;;;;;1.73;1.03;;;;;;;14.70;100.00;101665.41;2057478;28;20427;-66
2023/10/10 00:17:36;;;;;;;1.83;1.00;;;;;;;14.74;100.00;101669.66;2057248;28;20501;-66
2023/10/10 00:18:43;;;;;;;1.77;1.07;;;;;;;14.75;100.00;101670.47;2057414;28;20437;-66
2023/10/10 00:19:45;;;;;;;1.60;0.90;;;;;;;14.74;100.00;101678.03;2057414;28;20403;-66
2023/10/10 00:21:06;;;;;;;3.83;0.90;;;;;;;14.78;100.00;101667.59;2057382;28;20429;-66
2023/10/10 00:22:07;;;;;;;2.10;0.87;;;;;;;14.60;100.00;101636.53;2057510;28;20792;-66
2023/10/10 00:23:11;;;;;;;3.00;1.13;;;;;;;14.81;100.00;101666.69;2057352;28;20426;-66
2023/10/10 00:24:12;;;;;;;7.13;1.33;;;;;;;14.76;100.00;101672.78;2057319;28;20452;-66
2023/10/10 00:25:23;;;;;;;2.43;1.40;;;;;;;14.79;100.00;101666.34;2057263;28;21002;-66
2023/10/10 00:26:25;;;;;;;6.10;1.10;;;;;;;14.77;100.00;101666.03;2057317;28;20414;-66
2023/10/10 00:27:30;;;;;;;2.37;1.23;;;;;;;14.86;100.00;101665.41;2057320;28;20426;-66
2023/10/10 00:28:34;;;;;;;4.80;1.40;;;;;;;14.89;100.00;101664.50;2057349;28;20426;-66
2023/10/10 00:29:34;;;;;;;4.97;1.40;;;;;;;14.90;100.00;101666.88;2057297;28;20415;-66
2023/10/10 00:30:43;;;;;;;4.37;1.73;;;;;;;14.91;100.00;101674.00;2057321;28;20427;-66
2023/10/10 00:31:47;;;;;;;2.53;1.27;;;;;;;14.96;100.00;101670.69;2057355;28;20170;-66
2023/10/10 00:32:50;;;;;;;4.23;1.30;;;;;;;14.97;100.00;101675.06;2056378;28;20581;-66
2023/10/10 00:33:51;;;;;;;2.93;1.07;;;;;;;15.01;100.00;101669.41;2056876;28;20826;-66
2023/10/10 00:34:51;;;;;;;2.87;1.30;;;;;;;15.04;100.00;101672.09;2057349;28;20524;-66
2023/10/10 00:35:52;;;;;;;3.47;1.00;;;;;;;14.98;100.00;101671.06;2057285;28;20182;-66
2023/10/10 00:36:52;;;;;;;2.60;1.43;;;;;;;15.05;100.00;101670.06;2057366;28;20191;-66
2023/10/10 00:37:53;;;;;;;2.60;1.47;;;;;;;15.08;100.00;101664.44;2056894;28;20269;-66
2023/10/10 00:39:05;;;;;;;2.50;1.53;;;;;;;15.11;100.00;101663.53;2057238;28;20205;-66
2023/10/10 00:40:07;;;;;;;3.53;0.93;;;;;;;15.14;100.00;101659.88;2057324;28;20540;-66
2023/10/10 00:41:10;;;;;;;1.83;1.03;;;;;;;15.20;100.00;101660.91;2057359;28;20513;-66
2023/10/10 00:42:19;;;;;;;3.87;1.20;;;;;;;15.23;100.00;101657.25;2057140;28;20456;-66
2023/10/10 00:43:23;;;;;;;1.93;1.27;;;;;;;15.21;100.00;101659.69;2057274;28;20406;-66
2023/10/10 00:44:25;;;;;;;2.47;1.40;;;;;;;15.24;100.00;101655.22;2057100;28;20980;-66
2023/10/10 00:45:35;;;;;;;1.80;1.00;;;;;;;15.31;100.00;101649.47;2057114;28;20478;-67
2023/10/10 00:46:35;;;;;;;2.10;1.30;;;;;;;15.34;100.00;101652.19;2057279;28;20414;-66
2023/10/10 00:47:42;;;;;;;4.17;1.73;;;;;;;15.08;100.00;101605.81;2057126;28;20439;-66
2023/10/10 00:48:44;;;;;;;2.73;1.50;;;;;;;15.44;100.00;101651.13;2057194;28;20209;-66
2023/10/10 00:49:45;;;;;;;3.33;1.40;;;;;;;15.50;100.00;101646.56;2056544;28;20977;-66
2023/10/10 00:50:47;;;;;;;3.07;1.50;;;;;;;15.57;100.00;101637.97;2056621;28;20429;-66
2023/10/10 00:51:47;;;;;;;3.97;1.50;;;;;;;15.64;100.00;101643.38;2057161;28;20449;-67
2023/10/10 00:52:53;;;;;;;2.63;1.50;;;;;;;15.71;100.00;101633.97;2057019;28;20446;-67
2023/10/10 00:54:09;;;;;;;3.13;1.50;;;;;;;15.84;100.00;101626.41;2057344;28;20188;-67
2023/10/10 00:55:10;;;;;;;4.77;1.20;;;;;;;15.87;100.00;101620.72;2056817;28;20421;-67
2023/10/10 00:56:13;;;;;;;2.20;0.93;;;;;;;15.91;100.00;101627.00;2056676;28;20426;-66
2023/10/10 00:57:16;;;;;;;4.07;1.40;;;;;;;15.53;100.00;101549.91;2057274;28;20185;-66
2023/10/10 00:58:22;;;;;;;3.73;1.70;;;;;;;16.03;100.00;101619.88;2057266;28;20429;-66
2023/10/10 00:59:35;;;;;;;2.67;1.63;;;;;;;15.96;100.00;101597.69;2057093;28;20865;-64
2023/10/10 01:00:42;;;;;;;3.10;1.77;;;;;;;16.17;100.00;101611.00;2056414;28;20423;-66
2023/10/10 01:01:43;;;;;;;3.53;1.87;;;;;;;16.20;100.00;101613.72;2055921;28;20931;-64
2023/10/10 01:02:43;;;;;;;4.33;1.50;;;;;;;16.34;100.00;101604.88;2056626;28;20418;-66
2023/10/10 01:03:50;;;;;;;3.13;1.33;;;;;;;16.37;100.00;101603.97;2064481;28;20428;-66
2023/10/10 01:05:55;;;;;;;2.57;1.60;;;;;;;16.55;100.00;101603.44;2057126;28;20430;-66
2023/10/10 01:06:55;;;;;;;2.87;1.57;;;;;;;16.70;100.00;101601.75;2064619;28;20939;-66
2023/10/10 01:07:59;;;;;;;2.97;1.53;;;;;;;16.64;100.00;101583.97;2064664;28;20870;-66
2023/10/10 01:09:21;;;;;;;2.67;1.53;;;;;;;16.79;100.00;101588.59;2057038;28;20179;-66
2023/10/10 01:10:20;;;;;;;3.13;1.40;;;;;;;16.85;100.00;101591.63;2056665;28;20435;-66
2023/10/10 01:11:20;;;;;;;2.00;1.43;;;;;;;16.90;100.00;101591.81;2057022;28;20944;-66
2023/10/10 01:12:23;;;;;;;3.47;1.50;;;;;;;16.95;100.00;101593.28;2057262;28;20210;-66
2023/10/10 01:13:23;;;;;;;2.73;1.57;;;;;;;16.98;100.00;101586.00;2057074;28;20568;-66
2023/10/10 01:14:26;;;;;;;4.63;1.40;;;;;;;17.08;100.00;101594.81;2056427;28;20431;-66
2023/10/10 01:15:34;;;;;;;4.67;1.73;;;;;;;17.15;100.00;101602.16;2056648;28;20298;-66
2023/10/10 01:16:35;;;;;;;2.13;1.40;;;;;;;16.92;100.00;101560.56;2057257;28;20437;-66
2023/10/10 01:17:37;;;;;;;4.20;1.90;;;;;;;17.27;100.00;101601.34;2056918;28;20430;-66
2023/10/10 01:18:51;;;;;;;3.83;1.43;;;;;;;17.36;100.00;101607.00;2057075;28;20202;-66
2023/10/10 01:19:52;;;;;;;5.20;1.70;;;;;;;17.46;100.00;101593.88;2057193;28;20407;-66
2023/10/10 01:20:52;;;;;;;2.60;1.47;;;;;;;17.47;100.00;101593.44;2057084;28;20517;-66
2023/10/10 01:21:57;;;;;;;3.53;1.60;;;;;;;17.57;100.00;101600.66;2057118;28;20190;-66
2023/10/10 01:22:58;;;;;;;4.83;1.97;;;;;;;17.63;100.00;101598.81;2057151;28;20165;-66
2023/10/10 01:24:06;;;;;;;3.47;1.70;;;;;;;17.34;100.00;101562.63;2057171;28;20418;-66
2023/10/10 01:25:34;;;;;;;3.17;1.40;;;;;;;17.66;100.00;101609.09;2057170;28;20618;-67
2023/10/10 01:26:35;;;;;;;3.13;1.73;;;;;;;17.71;100.00;101610.56;2057034;28;20510;-66
2023/10/10 01:27:35;;;;;;;3.87;1.83;;;;;;;17.72;100.00;101601.69;2057187;28;20409;-67
2023/10/10 01:28:36;;;;;;;2.97;1.60;;;;;;;17.75;100.00;101608.41;2057073;28;20965;-66
2023/10/10 01:29:50;;;;;;;4.30;1.90;;;;;;;17.81;100.00;101604.53;2057134;28;20179;-66
2023/10/10 01:30:57;;;;;;;2.67;1.50;;;;;;;17.90;100.00;101607.41;2057293;28;20170;-66
2023/10/10 01:32:02;;;;;;;4.17;1.53;;;;;;;17.90;100.00;101612.25;2057287;28;20403;-66
2023/10/10 01:33:03;;;;;;;3.00;1.80;;;;;;;17.90;100.00;101604.59;2056975;28;20475;-67
2023/10/10 01:34:08;;;;;;;3.70;1.70;;;;;;;17.93;100.00;101606.50;2056939;28;20433;-66
2023/10/10 01:35:16;;;;;;;8.57;1.67;;;;;;;17.97;100.00;101612.72;2056380;28;20200;-67
2023/10/10 01:36:19;;;;;;;6.77;1.87;;;;;;;17.99;100.00;101615.88;2055600;28;20455;-67
2023/10/10 01:38:27;;;;;;;4.33;1.90;;;;;;;18.06;100.00;101617.63;2057058;28;20435;-68
2023/10/10 01:40:14;;;;;;;3.40;1.77;;;;;;;18.13;100.00;101617.34;2057099;28;20207;-68
2023/10/10 01:41:15;;;;;;;3.10;1.67;;;;;;;18.17;100.00;101623.59;2057059;28;20424;-67
2023/10/10 01:42:17;;;;;;;3.33;1.40;;;;;;;18.08;100.00;101611.06;2057039;28;20921;-67
2023/10/10 01:43:19;;;;;;;3.33;1.80;;;;;;;18.11;100.00;101612.19;2057050;28;20807;-67
2023/10/10 01:44:22;;;;;;;3.90;1.97;;;;;;;18.08;100.00;101608.28;2057065;28;20533;-67
2023/10/10 01:45:27;;;;;;;5.00;1.80;;;;;;;18.10;100.00;101610.63;2057075;28;20417;-67
2023/10/10 01:46:27;;;;;;;4.70;1.90;;;;;;;18.11;100.00;101608.59;2057071;28;20420;-67
2023/10/10 01:47:34;;;;;;;3.20;1.80;;;;;;;18.16;100.00;101611.56;2056770;28;20970;-67
2023/10/10 01:48:43;;;;;;;2.87;1.37;;;;;;;18.13;100.00;101602.06;2057083;28;20166;-67
2023/10/10 01:49:44;;;;;;;3.20;1.80;;;;;;;18.14;100.00;101606.41;2057030;28;20402;-67
2023/10/10 01:50:44;;;;;;;2.73;1.43;;;;;;;18.16;100.00;101613.63;2056980;28;20437;-67
2023/10/10 01:51:45;;;;;;;3.43;1.70;;;;;;;18.19;100.00;101608.63;2056973;28;20653;-67
2023/10/10 01:52:46;;;;;;;4.20;1.70;;;;;;;18.21;100.00;101618.63;2057033;28;20175;-68
2023/10/10 01:53:48;;;;;;;2.70;1.70;;;;;;;18.21;100.00;101613.03;2057071;28;20262;-69
2023/10/10 01:54:53;;;;;;;2.93;1.50;;;;;;;18.24;100.00;101618.50;2056970;28;20457;-68
2023/10/10 01:55:53;;;;;;;3.17;2.00;;;;;;;18.16;100.00;101619.22;2057153;28;20434;-63
2023/10/10 01:56:54;;;;;;;5.70;2.00;;;;;;;18.16;100.00;101622.03;2056933;28;20415;-64
2023/10/10 01:58:01;;;;;;;3.20;1.97;;;;;;;18.15;100.00;101621.25;2056939;28;20175;-63
2023/10/10 01:59:03;;;;;;;5.50;2.10;;;;;;;18.09;100.00;101609.06;2056818;28;20160;-62
2023/10/10 02:01:27;;;;;;;4.33;1.90;;;;;;;18.13;100.00;101616.09;2057004;28;20963;-63
2023/10/10 02:02:30;;;;;;;6.17;1.80;;;;;;;17.98;100.00;101601.06;2056950;28;20478;-64
2023/10/10 02:03:31;;;;;;;4.30;1.90;;;;;;;18.14;100.00;101626.06;2056848;28;20941;-63
2023/10/10 02:04:35;;;;;;;4.07;1.80;;;;;;;18.09;100.00;101618.25;2056924;28;20865;-64
2023/10/10 02:06:39;;;;;;;2.60;1.40;;;;;;;18.13;100.00;101620.13;2056337;28;20403;-64
2023/10/10 02:07:41;;;;;;;3.17;1.70;;;;;;;18.13;100.00;101622.94;2065681;28;20653;-63
2023/10/10 02:08:41;;;;;;;3.07;1.70;;;;;;;18.11;100.00;101620.59;2061749;28;20433;-63
2023/10/10 02:09:43;;;;;;;4.90;1.80;;;;;;;18.02;100.00;101609.31;2058198;28;20430;-63
2023/10/10 02:10:49;;;;;;;2.77;1.50;;;;;;;18.10;100.00;101624.66;2058323;28;20233;-63
2023/10/10 02:11:50;;;;;;;4.03;2.00;;;;;;;18.09;100.00;101623.09;2058507;28;20394;-63
2023/10/10 02:12:51;;;;;;;3.57;1.90;;;;;;;18.04;100.00;101618.84;2058428;28;20807;-63
2023/10/10 02:13:53;;;;;;;3.50;1.77;;;;;;;17.98;100.00;101617.13;2058268;28;20418;-63
2023/10/10 02:14:54;;;;;;;4.37;1.87;;;;;;;18.02;100.00;101621.34;2058278;28;20179;-63
2023/10/10 02:15:54;;;;;;;5.13;1.60;;;;;;;17.88;100.00;101609.09;2058347;28;20503;-63
2023/10/10 02:16:55;;;;;;;3.13;1.70;;;;;;;17.46;100.00;101546.25;2058295;28;20255;-63
2023/10/10 02:17:56;;;;;;;2.83;1.60;;;;;;;18.02;100.00;101631.00;2058266;28;20332;-63
2023/10/10 02:18:59;;;;;;;5.33;1.63;;;;;;;18.02;100.00;101626.16;2055057;28;20184;-63
2023/10/10 02:19:59;;;;;;;2.00;1.30;;;;;;;18.03;100.00;101630.53;2057615;28;20174;-63
2023/10/10 02:21:06;;;;;;;2.33;1.60;;;;;;;18.01;100.00;101635.81;2057659;28;20886;-64
2023/10/10 02:22:23;;;;;;;2.93;1.70;;;;;;;17.44;100.00;101545.91;2049678;29;20233;-64
2023/10/10 02:25:37;;;;;;;3.20;1.53;;;;;;;18.09;100.00;101632.28;2058514;28;20613;-66
2023/10/10 02:26:38;;;;;;;5.43;2.10;;;;;;;18.07;100.00;101636.78;2058161;28;20408;-65
2023/10/10 02:29:17;;;;;;;3.67;1.60;;;;;;;17.88;100.00;101641.50;2058243;28;20657;-65
2023/10/10 02:30:22;;;;;;;3.00;1.70;;;;;;;17.80;100.00;101639.41;2058311;28;20406;-65
2023/10/10 02:31:28;;;;;;;3.33;1.60;;;;;;;17.75;100.00;101639.25;2058226;28;20773;-65
2023/10/10 02:32:29;;;;;;;2.77;1.47;;;;;;;17.77;100.00;101641.13;2058354;28;20971;-65
2023/10/10 02:33:31;;;;;;;2.63;1.70;;;;;;;16.81;100.00;101496.53;2066282;28;20452;-65
2023/10/10 02:34:34;;;;;;;4.47;1.43;;;;;;;17.73;100.00;101648.88;2066267;28;20419;-65
2023/10/10 02:35:46;;;;;;;3.77;1.70;;;;;;;17.72;100.00;101649.34;2066092;28;20531;-65
2023/10/10 02:37:06;;;;;;;3.83;1.67;;;;;;;17.72;100.00;101656.97;2058577;28;20493;-65
2023/10/10 02:38:11;;;;;;;2.67;1.50;;;;;;;17.61;100.00;101656.59;2058254;28;20403;-66
2023/10/10 02:40:18;;;;;;;2.53;1.57;;;;;;;17.68;100.00;101662.72;2058215;28;20405;-65
2023/10/10 02:42:38;;;;;;;2.57;1.40;;;;;;;17.58;100.00;101654.69;2058311;28;20250;-66
2023/10/10 02:44:57;;;;;;;2.93;1.63;;;;;;;17.57;100.00;101656.72;2058204;28;20167;-65
2023/10/10 02:45:58;;;;;;;3.63;1.70;;;;;;;17.57;100.00;101662.31;2058076;28;20410;-65
2023/10/10 02:46:59;;;;;;;3.60;1.70;;;;;;;17.58;100.00;101655.47;2058174;28;20258;-66
2023/10/10 02:48:05;;;;;;;4.03;1.63;;;;;;;17.57;100.00;101656.72;2058176;28;20214;-65
2023/10/10 02:50:40;;;;;;;5.60;1.77;;;;;;;16.96;100.00;101564.03;2058130;28;20431;-65
2023/10/10 02:51:42;;;;;;;4.03;1.60;;;;;;;17.60;100.00;101657.81;2058159;28;20492;-66
2023/10/10 02:52:45;;;;;;;4.10;1.60;;;;;;;17.57;100.00;101658.72;2064262;28;20425;-65
2023/10/10 02:53:46;;;;;;;3.90;2.00;;;;;;;17.56;100.00;101655.13;2066046;28;20410;-65
2023/10/10 02:54:56;;;;;;;7.70;1.63;;;;;;;17.55;100.00;101661.97;2061795;28;20445;-65
2023/10/10 02:56:01;;;;;;;4.23;1.80;;;;;;;17.55;100.00;101652.81;2058083;28;20391;-65
2023/10/10 02:58:28;;;;;;;1.97;1.27;;;;;;;17.53;100.00;101658.84;2058113;28;20402;-65
2023/10/10 02:59:31;;;;;;;6.27;1.60;;;;;;;17.54;100.00;101663.22;2057393;28;20433;-66
2023/10/10 03:00:34;;;;;;;4.37;1.77;;;;;;;17.56;100.00;101654.38;2057462;28;20493;-65
2023/10/10 03:01:55;;;;;;;4.50;2.10;;;;;;;17.50;100.00;101648.53;2060723;28;20471;-65
2023/10/10 03:02:59;;;;;;;3.13;1.40;;;;;;;17.57;100.00;101672.75;2066144;28;20500;-65
2023/10/10 03:04:03;;;;;;;2.50;1.60;;;;;;;17.56;100.00;101655.13;2066057;28;20500;-65
2023/10/10 03:06:07;;;;;;;3.67;1.97;;;;;;;17.59;100.00;101651.44;2064109;28;20424;-66
2023/10/10 03:07:07;;;;;;;4.60;1.80;;;;;;;17.61;100.00;101668.56;2057962;28;20193;-65
2023/10/10 03:08:34;;;;;;;5.27;1.63;;;;;;;17.63;100.00;101668.09;2057988;28;20454;-66
2023/10/10 03:09:42;;;;;;;3.13;1.60;;;;;;;17.20;100.00;101601.56;2057838;28;20166;-65
2023/10/10 03:11:20;;;;;;;2.83;1.47;;;;;;;17.59;100.00;101679.47;2049316;29;20445;-65
2023/10/10 03:12:17;;;;;;;2.80;1.20;;;;;;;17.58;100.00;101683.50;2049291;29;20445;-65
2023/10/10 03:13:36;;;;;;;3.10;1.60;;;;;;;17.62;100.00;101688.97;2050018;29;20413;-66
2023/10/10 03:14:43;;;;;;;3.93;1.77;;;;;;;17.57;100.00;101695.16;2055461;28;20521;-66
2023/10/10 03:15:51;;;;;;;2.13;1.37;;;;;;;17.58;100.00;101691.13;2057794;28;20983;-66
2023/10/10 03:18:19;;;;;;;3.20;1.60;;;;;;;17.49;100.00;101700.22;2041749;28;20436;-66
2023/10/10 03:19:26;;;;;;;2.77;1.30;;;;;;;17.48;100.00;101698.69;2057415;28;20410;-65
2023/10/10 03:24:15;;;;;;;4.93;2.13;;;;;;;17.35;100.00;101673.47;2057876;28;20386;-66
2023/10/10 03:25:24;;;;;;;3.07;1.63;;;;;;;17.49;100.00;101693.88;2057842;28;20400;-66
2023/10/10 03:27:00;;;;;;;2.90;1.40;;;;;;;17.53;100.00;101707.28;2057896;28;20413;-66
2023/10/10 03:29:03;;;;;;;3.10;1.40;;;;;;;17.47;100.00;101708.31;2057875;28;20791;-65
2023/10/10 03:30:17;;;;;;;2.60;1.57;;;;;;;17.54;100.00;101705.25;2057919;28;20221;-66
2023/10/10 03:32:46;;;;;;;4.03;1.57;;;;;;;17.48;100.00;101711.88;2049823;29;20422;-66
2023/10/10 03:34:03;;;;;;;3.50;1.33;;;;;;;17.45;100.00;101707.97;2033412;29;20208;-66
2023/10/10 03:35:20;;;;;;;5.13;1.33;;;;;;;17.44;100.00;101708.44;2038445;29;20436;-66
2023/10/10 03:37:30;;;;;;;4.67;1.50;;;;;;;17.40;100.00;101708.56;2049793;29;20403;-66
2023/10/10 03:39:53;;;;;;;3.13;1.60;;;;;;;17.43;100.00;101702.06;2049853;29;20481;-66
2023/10/10 05:23:35;;;;;;;2.87;1.83;;;;;;;19.12;100.00;101763.75;2040326;28;20399;-65
2023/10/10 05:24:42;;;;;;;4.00;2.10;;;;;;;19.12;100.00;101760.94;2036499;28;20443;-65
2023/10/10 05:25:43;;;;;;;5.17;1.70;;;;;;;19.07;100.00;101767.16;2046649;28;20653;-65
2023/10/10 05:26:47;;;;;;;5.67;1.80;;;;;;;19.09;100.00;101764.69;2047358;28;20894;-65
2023/10/10 05:27:47;;;;;;;4.67;1.57;;;;;;;19.11;100.00;101767.81;2046285;28;20206;-65
2023/10/10 05:28:48;;;;;;;3.80;1.70;;;;;;;19.14;100.00;101775.31;2044767;28;20969;-65
2023/10/10 05:29:49;;;;;;;3.73;2.40;;;;;;;19.17;100.00;101765.94;2046496;28;20327;-64
2023/10/10 05:30:55;;;;;;;4.40;2.00;;;;;;;19.18;100.00;101770.34;2047664;28;20221;-64
2023/10/10 05:31:59;;;;;;;3.83;1.80;;;;;;;19.17;100.00;101763.13;2048897;28;20419;-64
2023/10/10 05:33:03;;;;;;;3.93;1.90;;;;;;;19.20;100.00;101765.81;2051168;28;20544;-65
2023/10/10 05:34:04;;;;;;;3.77;1.97;;;;;;;19.19;100.00;101757.84;2055855;28;20453;-64
2023/10/10 05:35:11;;;;;;;5.07;2.30;;;;;;;19.23;100.00;101764.91;2056630;28;20461;-64
2023/10/10 05:36:13;;;;;;;3.83;2.00;;;;;;;19.25;100.00;101764.44;2055188;28;20283;-65
2023/10/10 05:37:15;;;;;;;3.60;1.80;;;;;;;19.22;100.00;101762.56;2036035;28;20442;-65
2023/10/10 05:38:19;;;;;;;3.73;2.00;;;;;;;19.00;100.00;101733.75;2054897;28;20429;-65
2023/10/10 05:39:23;;;;;;;3.27;1.57;;;;;;;19.02;100.00;101725.63;2055141;28;20453;-67
2023/10/10 05:40:26;;;;;;;4.33;1.70;;;;;;;18.76;100.00;101682.97;2055992;28;20456;-67
2023/10/10 05:41:28;;;;;;;2.80;1.80;;;;;;;19.28;100.00;101769.13;2055121;28;20471;-67
2023/10/10 05:42:33;;;;;;;3.67;1.40;;;;;;;19.09;100.00;101742.97;2057851;28;20809;-67
2023/10/10 05:43:34;;;;;;;4.00;1.70;;;;;;;19.30;100.00;101775.84;2055563;28;20509;-67
2023/10/10 05:44:38;;;;;;;2.67;1.70;;;;;;;19.33;100.00;101782.56;2056658;28;25500;-67
2023/10/10 05:45:39;;;;;;;2.60;1.40;;;;;;;19.34;100.00;101786.97;2056949;28;20233;-67
2023/10/10 05:46:40;;;;;;;4.37;1.80;;;;;;;19.33;100.00;101774.94;2058617;28;20978;-67
2023/10/10 05:47:40;;;;;;;2.87;1.80;;;;;;;19.13;100.00;101738.00;2057954;28;20270;-67
2023/10/10 05:48:41;;;;;;;2.80;1.50;;;;;;;19.40;100.00;101774.63;2052777;28;20195;-67
2023/10/10 05:49:41;;;;;;;4.17;1.90;;;;;;;19.47;100.00;101779.16;2048275;28;20222;-68
2023/10/10 05:50:42;;;;;;;1.67;1.10;;;;;;;19.49;100.00;101780.25;2040718;28;21138;-68
2023/10/10 05:51:42;;;;;;;4.10;1.70;;;;;;;19.46;100.00;101781.22;2056924;28;20256;-67
2023/10/10 05:52:46;;;;;;;2.07;1.37;;;;;;;19.33;100.00;101765.69;2060259;28;20269;-67
2023/10/10 05:53:46;;;;;;;2.73;1.07;;;;;;;19.48;100.00;101789.97;2055103;28;20194;-67
2023/10/10 05:54:47;;;;;;;4.13;1.33;;;;;;;19.47;100.00;101785.59;2053183;28;20524;-66
2023/10/10 05:55:53;;;;;;;2.17;1.10;;;;;;;19.35;100.00;101761.19;2057481;28;20288;-64
2023/10/10 05:56:53;;;;;;;2.03;1.00;;;;;;;19.46;100.00;101788.84;2045382;28;20289;-64
2023/10/10 05:57:57;;;;;;;1.53;1.17;;;;;;;19.18;100.00;101745.81;2045652;28;20437;-64
2023/10/10 05:58:58;;;;;;;4.93;1.50;;;;;;;19.48;100.00;101797.59;2056357;28;20195;-64
2023/10/10 05:59:58;;;;;;;6.13;1.63;;;;;;;19.53;100.00;101794.16;2049737;28;20435;-64
2023/10/10 06:00:59;;;;;;;4.87;1.20;;;;;;;19.46;100.00;101789.66;2046752;28;20442;-64
2023/10/10 06:02:01;;;;;;;2.27;1.20;;;;;;;19.47;100.00;101799.66;2050808;28;20210;-64
2023/10/10 06:03:08;;;;;;;3.40;1.10;;;;;;;19.50;100.00;101784.63;2054555;28;20190;-64
2023/10/10 06:04:08;;;;;;;3.03;1.27;;;;;;;19.48;100.00;101795.56;2054675;28;21723;-64
2023/10/10 06:05:09;;;;;;;2.50;1.07;;;;;;;19.06;100.00;101724.25;2054843;28;20425;-64
2023/10/10 06:06:15;;;;;;;2.43;1.10;;;;;;;19.57;100.00;101792.78;2058078;28;20194;-64
2023/10/10 06:07:16;;;;;;;2.43;1.10;;;;;;;19.58;100.00;101797.16;2057414;28;20206;-64
2023/10/10 06:08:16;;;;;;;1.90;1.10;;;;;;;19.59;100.00;101797.94;2056368;28;21017;-64
2023/10/10 06:09:19;;;;;;;3.50;0.97;;;;;;;19.56;100.00;101801.69;2055000;28;20210;-64
2023/10/10 06:10:20;;;;;;;6.33;1.20;;;;;;;19.34;100.00;101772.91;2052545;28;20669;-65
2023/10/10 06:11:21;;;;;;;1.50;0.90;;;;;;;19.36;100.00;101770.41;2051336;28;20790;-64
2023/10/10 06:12:21;;;;;;;2.10;1.00;;;;;;;19.59;100.00;101801.53;2054726;28;20194;-64
2023/10/10 06:13:22;;;;;;;3.90;1.00;;;;;;;19.60;100.00;101802.31;2055903;28;20225;-64
2023/10/10 06:14:24;;;;;;;6.67;1.00;;;;;;;19.46;100.00;101775.59;2056364;28;20548;-64
2023/10/10 06:15:24;;;;;;;3.07;1.37;;;;;;;19.66;100.00;101798.41;2056267;28;20211;-64
2023/10/10 06:16:25;;;;;;;1.63;0.80;;;;;;;19.61;100.00;101796.25;2045662;28;20459;-64
2023/10/10 06:17:25;;;;;;;1.57;0.87;;;;;;;19.68;100.00;101807.19;2046877;28;20245;-64
2023/10/10 06:18:28;;;;;;;1.13;0.83;;;;;;;19.70;100.00;101799.03;2054845;28;20283;-64
2023/10/10 06:19:29;;;;;;;4.60;1.00;;;;;;;19.72;100.00;101796.56;2055141;28;20441;-64
2023/10/10 06:20:31;;;;;;;1.20;0.90;;;;;;;19.64;100.00;101789.66;2053284;28;20222;-64
2023/10/10 06:21:32;;;;;;;1.10;0.90;;;;;;;19.67;100.00;101802.00;2046141;28;20188;-65
2023/10/10 06:22:32;;;;;;;1.30;1.00;;;;;;;19.37;100.00;101758.69;2046123;28;20541;-64
2023/10/10 06:23:35;;;;;;;1.80;1.10;;;;;;;19.65;100.00;101819.34;2053399;28;20223;-64
2023/10/10 06:24:35;;;;;;;1.70;0.93;;;;;;;19.71;100.00;101797.03;2054168;28;20191;-64
2023/10/10 06:25:37;;;;;;;4.03;1.17;;;;;;;19.76;100.00;101810.47;2057762;28;20421;-64
2023/10/10 06:26:37;;;;;;;1.50;0.90;;;;;;;19.76;100.00;101802.78;2056024;28;20753;-64
2023/10/10 06:27:40;;;;;;;7.87;1.20;;;;;;;19.76;100.00;101807.66;2054567;28;20452;-64
2023/10/10 06:28:47;;;;;;;10.73;1.60;;;;;;;19.80;100.00;101803.44;2046943;28;20227;-64
2023/10/10 06:29:48;;;;;;;2.13;1.00;;;;;;;19.79;100.00;101806.69;2046784;28;21608;-65
2023/10/10 06:30:52;;;;;;;1.80;1.00;;;;;;;19.79;100.00;101803.88;2044499;28;20475;-65
2023/10/10 06:31:57;;;;;;;1.60;0.80;;;;;;;19.82;100.00;101809.38;2049006;28;20476;-66
2023/10/10 06:33:08;;;;;;;1.73;0.80;;;;;;;19.86;100.00;101803.59;2056524;28;20958;-65
2023/10/10 06:34:22;;;;;;;2.37;1.00;;;;;;;19.52;100.00;101745.59;2052529;28;20861;-64
2023/10/10 06:37:27;;;;;;;1.63;1.00;;;;;;;20.03;100.00;101816.09;2051766;28;20423;-65
2023/10/10 06:38:27;;;;;;;3.10;1.10;;;;;;;20.06;100.00;101821.56;2055918;28;20216;-65
2023/10/10 06:39:32;;;;;;;2.60;1.13;;;;;;;20.07;100.00;101800.66;2056736;28;20433;-65
2023/10/10 06:40:33;;;;;;;2.83;1.20;;;;;;;19.87;100.00;101777.81;2057188;28;20266;-64
2023/10/10 06:41:40;;;;;;;1.50;0.93;;;;;;;20.10;100.00;101813.78;2051108;28;20557;-64
2023/10/10 06:42:46;;;;;;;2.77;1.03;;;;;;;20.12;100.00;101816.13;2051329;28;20195;-64
2023/10/10 06:43:47;;;;;;;3.77;1.17;;;;;;;20.10;100.00;101804.56;2054511;28;20485;-64
2023/10/10 06:44:48;;;;;;;1.60;0.90;;;;;;;20.17;100.00;101823.97;2055217;28;20524;-64
2023/10/10 06:45:55;;;;;;;0.83;0.70;;;;;;;20.22;100.00;101815.66;2055531;28;20576;-65
2023/10/10 06:46:55;;;;;;;1.87;0.83;;;;;;;19.51;100.00;101717.94;2055443;28;20978;-65
2023/10/10 06:47:56;;;;;;;2.17;1.20;;;;;;;20.14;100.00;101819.25;2053411;28;21005;-64
2023/10/10 06:49:04;;;;;;;1.80;0.80;;;;;;;19.87;100.00;101783.44;2057768;28;20235;-65
2023/10/10 06:50:11;;;;;;;3.77;1.00;;;;;;;20.09;100.00;101829.13;2058145;28;20613;-65
2023/10/10 06:51:11;;;;;;;3.87;0.90;;;;;;;20.08;100.00;101821.13;2054766;28;20442;-64
2023/10/10 06:52:18;;;;;;;1.97;1.03;;;;;;;20.13;100.00;101818.50;2053590;28;20450;-64
2023/10/10 06:53:36;;;;;;;2.20;1.00;;;;;;;20.12;100.00;101824.59;2057194;28;20273;-65
2023/10/10 06:54:44;;;;;;;0.93;0.70;;;;;;;20.06;100.00;101820.81;2053089;28;21043;-66
2023/10/10 06:55:45;;;;;;;4.33;1.00;;;;;;;20.07;100.00;101831.59;2053408;28;20544;-65
2023/10/10 06:58:02;;;;;;;2.30;0.90;;;;;;;20.16;100.00;101831.59;2054322;28;20679;-65
2023/10/10 06:59:02;;;;;;;1.37;0.80;;;;;;;20.14;100.00;101827.69;2053381;28;20532;-65
2023/10/10 07:00:28;;;;;;;2.00;1.40;;;;;;;20.19;100.00;101827.06;2054917;28;20970;-65
2023/10/10 07:01:28;;;;;;;2.00;0.80;;;;;;;20.23;100.00;101828.50;2053441;28;20506;-65
2023/10/10 07:02:39;;;;;;;1.93;0.53;;;;;;;20.21;100.00;101822.53;2055496;28;20533;-65
2023/10/10 07:03:46;;;;;;;0.67;0.60;;;;;;;20.21;100.00;101822.53;2055628;28;20341;-66
2023/10/10 07:04:54;;;;;;;0.83;0.70;;;;;;;19.69;100.00;101746.06;2055286;28;20792;-65
2023/10/10 07:05:54;;;;;;;1.10;0.70;;;;;;;20.27;100.00;101823.47;2056771;28;21144;-66
2023/10/10 07:07:00;;;;;;;2.17;0.77;;;;;;;20.30;100.00;101827.38;2057920;28;20437;-65
2023/10/10 07:09:37;;;;;;;1.30;0.67;;;;;;;20.43;100.00;101828.00;2040419;29;20446;-65